• Join FlightAware (Why Join?)
  • Login
  • US Flag 
07:57AM EDT


 

Airport Tracker/Info


-or-


 

Live Flight TrackerFlight Track Log ✈ N414DJ ✈ 15-Jun-2014 ✈ 5B2 - KCDW

Flight Track Log - Related Links

Times and Time Zones

All times are in EDT time to prevent confusion due to time zone crossing. See the N414DJ flight status page for this flight to view local times or setup timezone preferences in your user account.

Time Position Orientation Groundspeed Altitude Reporting Facility
EDT Latitude Longitude Course Direction KTS MPH feet Rate Location/Type
08:16PM 43.0206 -73.8683 189° South 108 124 2,000  Level Boston Center
08:17PM 42.9939 -73.8739 189° South 112 129 2,400 480 Climbing Boston Center
08:18PM 42.9750 -73.8772 187° South 110 127 2,700 540 Climbing Boston Center
08:18PM 42.9581 -73.8819 192° South 115 132 3,000 480 Climbing Boston Center
08:19PM 42.9433 -73.8842 186° South 113 130 3,200 360 Climbing Boston Center
08:19PM 42.9247 -73.8883 189° South 120 138 3,400 360 Climbing Boston Center
08:20PM 42.9100 -73.8906 186° South 117 135 3,600 360 Climbing Boston Center
08:20PM 42.8914 -73.8944 189° South 121 139 3,800 420 Climbing Boston Center
08:21PM 42.8742 -73.8981 189° South 119 137 4,100 480 Climbing Boston Center
08:21PM 42.8581 -73.9006 186° South 123 142 4,300 360 Climbing Boston Center
08:22PM 42.8394 -73.9039 187° South 122 140 4,500 180 Climbing Boston Center
08:22PM 42.8200 -73.9081 189° South 126 145 4,500  Level Boston Center
08:23PM 42.8033 -73.9119 190° South 132 152 4,500  Level Boston Center
08:23PM 42.7817 -73.9183 192° South 147 169 4,500  Level Boston Center
08:24PM 42.7603 -73.9211 185° South 142 163 4,500  Level Boston Center
08:24PM 42.7417 -73.9253 189° South 148 170 4,500  Level Boston Center
08:25PM 42.7206 -73.9286 187° South 143 165 4,500  Level Boston Center
08:25PM 42.7017 -73.9319 187° South 147 169 4,500  Level Boston Center
08:26PM 42.6806 -73.9364 189° South 143 165 4,500  Level Boston Center
08:26PM 42.6592 -73.9408 189° South 145 167 4,500  Level Boston Center
08:27PM 42.6381 -73.9447 188° South 143 165 4,500  Level Boston Center
08:27PM 42.6194 -73.9478 187° South 142 163 4,500  Level Boston Center
08:28PM 42.5994 -73.9525 190° South 143 165 4,500  Level Boston Center
08:28PM 42.5814 -73.9553 186° South 140 161 4,500  Level Boston Center
08:29PM 42.5614 -73.9594 189° South 142 163 4,500  Level Boston Center
08:29PM 42.5431 -73.9653 193° South 140 161 4,500  Level Boston Center
08:30PM 42.5219 -73.9678 185° South 142 163 4,500  Level Boston Center
08:31PM 42.4964 -73.9728 188° South 144 166 4,500  Level Boston Center
08:31PM 42.4794 -73.9761 188° South 142 163 4,500  Level Boston Center
08:32PM 42.4586 -73.9803 188° South 143 165 4,500  Level Boston Center
08:32PM 42.4403 -73.9836 188° South 142 163 4,500  Level Boston Center
08:33PM 42.4186 -73.9869 186° South 141 162 4,500  Level Boston Center
08:33PM 42.4022 -73.9908 190° South 142 163 4,500  Level Boston Center
08:34PM 42.3808 -73.9944 187° South 142 163 4,500  Level Boston Center
08:34PM 42.3625 -73.9992 191° South 142 163 4,500  Level Boston Center
08:35PM 42.3403 -74.0039 189° South 144 166 4,500  Level Boston Center
08:35PM 42.3200 -74.0072 187° South 142 163 4,500  Level Boston Center
08:36PM 42.3022 -74.0114 190° South 142 163 4,500  Level Boston Center
08:36PM 42.2814 -74.0144 186° South 142 163 4,500  Level Boston Center
08:37PM 42.2600 -74.0200 191° South 142 163 4,500  Level Boston Center
08:37PM 42.2417 -74.0233 188° South 142 163 4,500  Level Boston Center
08:38PM 42.2006 -74.0294 186° South 142 163 4,500  Level Boston Center
08:39PM 42.1611 -74.0381 189° South 142 163 4,500  Level Boston Center
08:40PM 42.1222 -74.0450 188° South 142 163 4,500  Level Boston Center
08:41PM 42.0825 -74.0517 187° South 142 163 4,500  Level Boston Center
08:42PM 42.0425 -74.0617 191° South 140 161 4,500  Level Boston Center
08:43PM 42.0047 -74.0675 187° South 139 160 4,500  Level Boston Center
08:44PM 41.9672 -74.0742 188° South 138 159 4,500  Level Boston Center
08:45PM 41.9264 -74.0828 189° South 138 159 4,500  Level Boston Center
08:46PM 41.8878 -74.0903 188° South 138 159 4,500  Level Boston Center
08:47PM 41.8497 -74.0978 188° South 138 159 4,500  Level Boston Center
08:48PM 41.8122 -74.1047 188° South 138 159 4,500  Level Boston Center
08:49PM 41.7719 -74.1122 188° South 138 159 4,500  Level Boston Center
08:50PM 41.7336 -74.1203 189° South 138 159 4,500  Level Boston Center
08:51PM 41.6958 -74.1258 186° South 138 159 4,500  Level Boston Center
08:52PM 41.6594 -74.1056 157° South 141 162 4,500  Level Boston Center
08:53PM 41.6222 -74.1033 177° South 140 161 4,500  Level Boston Center
08:54PM 41.5819 -74.1139 191° South 139 160 4,500  Level Boston Center
08:55PM 41.5436 -74.1231 190° South 139 160 4,500  Level Boston Center
08:56PM 41.5061 -74.1328 191° South 139 160 4,500  Level Boston Center
08:57PM 41.4653 -74.1422 190° South 139 160 4,500  Level Boston Center
08:58PM 41.4269 -74.1517 190° South 139 160 4,500  Level Boston Center
08:59PM 41.3883 -74.1611 190° South 139 160 4,500  Level Boston Center
09:00PM 41.3500 -74.1700 190° South 140 161 4,500  Level Boston Center
09:01PM 41.3092 -74.1800 190° South 140 161 4,500  Level Boston Center
09:02PM 41.2714 -74.1889 190° South 139 160 4,500 -240 Level Boston Center
09:03PM 41.2319 -74.1981 190° South 141 162 4,100 -420 Descending Boston Center
09:05PM 41.1908 -74.2083 191° South 148 170 3,700 -360 Descending Boston Center
09:06PM 41.1494 -74.2181 190° South 148 170 3,400 -360 Descending Boston Center
09:07PM 41.1000 -74.2333 193° South 154 177 3,000 -420 Descending New York TRACON
09:08PM 41.0667 -74.2333 180° South 155 178 2,600 -360 Descending New York TRACON
09:09PM 41.0167 -74.2500 194° South 153 176 2,300 -300 Descending New York TRACON
09:10PM 40.9833 -74.2333 159° South 154 177 2,000 -420 Descending New York TRACON
09:11PM 40.9333 -74.2333 180° South 142 163 1,500 -300 Descending New York TRACON
09:12PM 40.9167 -74.2500 217° Southwest 82 94 1,400 -300 Descending New York TRACON
09:13PM 40.9000 -74.2667 217° Southwest 85 98 900 -540 Descending New York TRACON